sensor_id;sensor_type;location;lat;lon;timestamp;P1;durP1;ratioP1;P2;durP2;ratioP2
25609;SDS011;13479;49.044;8.716;2023-04-30T04:01:25;8.73;;;5.50;;
25609;SDS011;13479;49.044;8.716;2023-04-30T04:03:50;9.27;;;5.40;;
25609;SDS011;13479;49.044;8.716;2023-04-30T04:06:15;8.45;;;5.10;;
25609;SDS011;13479;49.044;8.716;2023-04-30T04:08:40;7.38;;;4.57;;
25609;SDS011;13479;49.044;8.716;2023-04-30T04:11:07;9.27;;;5.38;;
25609;SDS011;13479;49.044;8.716;2023-04-30T04:13:33;9.80;;;5.78;;
25609;SDS011;13479;49.044;8.716;2023-04-30T04:15:58;9.60;;;5.10;;
25609;SDS011;13479;49.044;8.716;2023-04-30T04:18:24;9.30;;;5.80;;
25609;SDS011;13479;49.044;8.716;2023-04-30T04:20:49;9.80;;;5.15;;
25609;SDS011;13479;49.044;8.716;2023-04-30T04:23:14;9.73;;;5.90;;
25609;SDS011;13479;49.044;8.716;2023-04-30T04:25:40;9.57;;;5.85;;
25609;SDS011;13479;49.044;8.716;2023-04-30T04:28:05;10.68;;;6.10;;
25609;SDS011;13479;49.044;8.716;2023-04-30T04:30:30;9.00;;;5.65;;
25609;SDS011;13479;49.044;8.716;2023-04-30T04:32:56;9.90;;;6.25;;
25609;SDS011;13479;49.044;8.716;2023-04-30T04:35:21;13.38;;;7.00;;
25609;SDS011;13479;49.044;8.716;2023-04-30T04:37:46;10.90;;;6.95;;
25609;SDS011;13479;49.044;8.716;2023-04-30T04:40:12;8.85;;;6.03;;
25609;SDS011;13479;49.044;8.716;2023-04-30T04:42:37;9.18;;;5.22;;
25609;SDS011;13479;49.044;8.716;2023-04-30T04:45:05;9.25;;;6.40;;
25609;SDS011;13479;49.044;8.716;2023-04-30T04:47:32;9.93;;;5.35;;
25609;SDS011;13479;49.044;8.716;2023-04-30T04:49:57;10.48;;;6.50;;
25609;SDS011;13479;49.044;8.716;2023-04-30T04:52:23;9.23;;;5.55;;
25609;SDS011;13479;49.044;8.716;2023-04-30T04:54:48;10.38;;;6.72;;
25609;SDS011;13479;49.044;8.716;2023-04-30T04:57:13;7.72;;;5.13;;
25609;SDS011;13479;49.044;8.716;2023-04-30T04:59:38;9.73;;;5.68;;
25609;SDS011;13479;49.044;8.716;2023-04-30T05:02:04;10.13;;;6.22;;
25609;SDS011;13479;49.044;8.716;2023-04-30T05:04:29;9.25;;;4.82;;
25609;SDS011;13479;49.044;8.716;2023-04-30T05:06:54;10.18;;;6.18;;
25609;SDS011;13479;49.044;8.716;2023-04-30T05:09:19;10.27;;;6.60;;
25609;SDS011;13479;49.044;8.716;2023-04-30T05:11:45;9.18;;;6.10;;
25609;SDS011;13479;49.044;8.716;2023-04-30T05:14:12;10.15;;;7.00;;
25609;SDS011;13479;49.044;8.716;2023-04-30T05:16:38;9.43;;;6.20;;
25609;SDS011;13479;49.044;8.716;2023-04-30T05:19:03;9.23;;;5.10;;
25609;SDS011;13479;49.044;8.716;2023-04-30T05:21:28;9.05;;;5.97;;
25609;SDS011;13479;49.044;8.716;2023-04-30T05:23:55;7.35;;;4.45;;
25609;SDS011;13479;49.044;8.716;2023-04-30T05:26:21;10.07;;;6.28;;
25609;SDS011;13479;49.044;8.716;2023-04-30T05:28:48;11.85;;;6.05;;
25609;SDS011;13479;49.044;8.716;2023-04-30T05:31:14;10.60;;;5.85;;
25609;SDS011;13479;49.044;8.716;2023-04-30T05:33:40;7.60;;;5.38;;
25609;SDS011;13479;49.044;8.716;2023-04-30T05:36:06;9.30;;;4.53;;
25609;SDS011;13479;49.044;8.716;2023-04-30T05:38:31;9.32;;;6.00;;
25609;SDS011;13479;49.044;8.716;2023-04-30T05:40:56;12.35;;;6.05;;
25609;SDS011;13479;49.044;8.716;2023-04-30T05:43:22;11.48;;;6.50;;
25609;SDS011;13479;49.044;8.716;2023-04-30T05:45:47;9.10;;;5.47;;
25609;SDS011;13479;49.044;8.716;2023-04-30T05:48:12;9.18;;;5.32;;
25609;SDS011;13479;49.044;8.716;2023-04-30T05:50:37;9.60;;;5.97;;
25609;SDS011;13479;49.044;8.716;2023-04-30T05:53:03;10.82;;;5.68;;
25609;SDS011;13479;49.044;8.716;2023-04-30T05:55:28;8.95;;;5.28;;
25609;SDS011;13479;49.044;8.716;2023-04-30T05:57:53;6.82;;;4.93;;
25609;SDS011;13479;49.044;8.716;2023-04-30T06:00:18;9.13;;;5.18;;
25609;SDS011;13479;49.044;8.716;2023-04-30T06:02:43;7.90;;;5.05;;
25609;SDS011;13479;49.044;8.716;2023-04-30T06:05:09;9.60;;;5.40;;
25609;SDS011;13479;49.044;8.716;2023-04-30T06:07:34;9.02;;;5.00;;
25609;SDS011;13479;49.044;8.716;2023-04-30T06:09:59;9.02;;;4.78;;
25609;SDS011;13479;49.044;8.716;2023-04-30T06:12:25;9.52;;;5.55;;
25609;SDS011;13479;49.044;8.716;2023-04-30T06:14:50;6.38;;;4.95;;
25609;SDS011;13479;49.044;8.716;2023-04-30T06:17:16;6.50;;;4.13;;
25609;SDS011;13479;49.044;8.716;2023-04-30T06:19:41;6.72;;;4.72;;
25609;SDS011;13479;49.044;8.716;2023-04-30T06:22:06;7.13;;;5.60;;
25609;SDS011;13479;49.044;8.716;2023-04-30T06:24:31;8.88;;;6.00;;
25609;SDS011;13479;49.044;8.716;2023-04-30T06:26:57;7.63;;;5.25;;
25609;SDS011;13479;49.044;8.716;2023-04-30T06:29:22;8.57;;;5.63;;
25609;SDS011;13479;49.044;8.716;2023-04-30T06:31:48;7.43;;;5.50;;
25609;SDS011;13479;49.044;8.716;2023-04-30T06:34:14;8.55;;;5.18;;
25609;SDS011;13479;49.044;8.716;2023-04-30T06:36:40;8.95;;;4.93;;
25609;SDS011;13479;49.044;8.716;2023-04-30T06:39:05;9.48;;;5.53;;
25609;SDS011;13479;49.044;8.716;2023-04-30T06:41:30;9.43;;;5.93;;
25609;SDS011;13479;49.044;8.716;2023-04-30T06:43:56;9.27;;;5.72;;
25609;SDS011;13479;49.044;8.716;2023-04-30T06:46:21;7.40;;;5.35;;
25609;SDS011;13479;49.044;8.716;2023-04-30T06:48:46;7.40;;;5.50;;
25609;SDS011;13479;49.044;8.716;2023-04-30T06:51:11;9.18;;;5.15;;
25609;SDS011;13479;49.044;8.716;2023-04-30T06:53:37;10.65;;;5.72;;
25609;SDS011;13479;49.044;8.716;2023-04-30T06:56:02;7.03;;;5.13;;
25609;SDS011;13479;49.044;8.716;2023-04-30T06:58:28;7.93;;;5.22;;
25609;SDS011;13479;49.044;8.716;2023-04-30T07:00:53;7.72;;;5.50;;
25609;SDS011;13479;49.044;8.716;2023-04-30T07:03:18;9.82;;;6.05;;
25609;SDS011;13479;49.044;8.716;2023-04-30T07:05:44;7.28;;;5.13;;
25609;SDS011;13479;49.044;8.716;2023-04-30T07:08:09;8.10;;;5.90;;
25609;SDS011;13479;49.044;8.716;2023-04-30T07:10:34;30.05;;;27.63;;
25609;SDS011;13479;49.044;8.716;2023-04-30T07:13:00;8.35;;;7.10;;
25609;SDS011;13479;49.044;8.716;2023-04-30T07:15:25;8.70;;;5.65;;
25609;SDS011;13479;49.044;8.716;2023-04-30T07:17:50;8.93;;;5.13;;
25609;SDS011;13479;49.044;8.716;2023-04-30T07:20:15;6.60;;;4.88;;
25609;SDS011;13479;49.044;8.716;2023-04-30T07:22:41;8.35;;;5.40;;
25609;SDS011;13479;49.044;8.716;2023-04-30T07:25:13;7.97;;;5.38;;
25609;SDS011;13479;49.044;8.716;2023-04-30T07:27:38;9.00;;;5.60;;
25609;SDS011;13479;49.044;8.716;2023-04-30T07:30:04;7.07;;;4.45;;
25609;SDS011;13479;49.044;8.716;2023-04-30T07:32:31;6.82;;;4.50;;
25609;SDS011;13479;49.044;8.716;2023-04-30T07:34:56;5.25;;;3.25;;
25609;SDS011;13479;49.044;8.716;2023-04-30T07:37:21;7.25;;;4.75;;
25609;SDS011;13479;49.044;8.716;2023-04-30T07:39:47;6.45;;;4.18;;
25609;SDS011;13479;49.044;8.716;2023-04-30T07:42:12;6.55;;;4.50;;
25609;SDS011;13479;49.044;8.716;2023-04-30T07:44:37;8.35;;;5.30;;
25609;SDS011;13479;49.044;8.716;2023-04-30T07:47:03;7.75;;;5.07;;
25609;SDS011;13479;49.044;8.716;2023-04-30T07:49:28;11.73;;;4.25;;
25609;SDS011;13479;49.044;8.716;2023-04-30T07:51:54;6.30;;;4.55;;
25609;SDS011;13479;49.044;8.716;2023-04-30T07:54:20;8.13;;;4.75;;
25609;SDS011;13479;49.044;8.716;2023-04-30T07:56:45;6.57;;;4.30;;
25609;SDS011;13479;49.044;8.716;2023-04-30T07:59:12;6.50;;;4.50;;
25609;SDS011;13479;49.044;8.716;2023-04-30T08:01:37;7.25;;;5.20;;
25609;SDS011;13479;49.044;8.716;2023-04-30T08:04:03;6.65;;;3.90;;
25609;SDS011;13479;49.044;8.716;2023-04-30T08:06:28;6.13;;;4.18;;
25609;SDS011;13479;49.044;8.716;2023-04-30T08:08:53;8.02;;;4.05;;
25609;SDS011;13479;49.044;8.716;2023-04-30T08:11:19;6.88;;;3.97;;
25609;SDS011;13479;49.044;8.716;2023-04-30T08:13:45;5.95;;;3.42;;
25609;SDS011;13479;49.044;8.716;2023-04-30T08:16:10;5.78;;;4.50;;
25609;SDS011;13479;49.044;8.716;2023-04-30T08:18:36;5.45;;;3.70;;
25609;SDS011;13479;49.044;8.716;2023-04-30T08:21:08;6.47;;;4.30;;
25609;SDS011;13479;49.044;8.716;2023-04-30T08:23:33;6.32;;;4.25;;
25609;SDS011;13479;49.044;8.716;2023-04-30T08:25:59;9.90;;;4.13;;
25609;SDS011;13479;49.044;8.716;2023-04-30T08:28:24;6.90;;;4.35;;
25609;SDS011;13479;49.044;8.716;2023-04-30T08:30:49;6.97;;;4.13;;
25609;SDS011;13479;49.044;8.716;2023-04-30T08:33:15;6.80;;;4.30;;
25609;SDS011;13479;49.044;8.716;2023-04-30T08:35:40;5.88;;;4.00;;
25609;SDS011;13479;49.044;8.716;2023-04-30T08:38:05;6.80;;;3.70;;
25609;SDS011;13479;49.044;8.716;2023-04-30T08:40:31;6.75;;;4.50;;
25609;SDS011;13479;49.044;8.716;2023-04-30T08:43:03;5.10;;;3.60;;
25609;SDS011;13479;49.044;8.716;2023-04-30T08:45:30;5.25;;;3.58;;
25609;SDS011;13479;49.044;8.716;2023-04-30T08:47:56;7.70;;;4.00;;
25609;SDS011;13479;49.044;8.716;2023-04-30T08:50:23;6.85;;;3.83;;
25609;SDS011;13479;49.044;8.716;2023-04-30T08:52:49;4.72;;;3.50;;
25609;SDS011;13479;49.044;8.716;2023-04-30T08:55:14;5.07;;;3.45;;
25609;SDS011;13479;49.044;8.716;2023-04-30T08:57:39;5.68;;;4.00;;
25609;SDS011;13479;49.044;8.716;2023-04-30T09:00:05;6.20;;;3.40;;
25609;SDS011;13479;49.044;8.716;2023-04-30T09:02:31;8.25;;;4.20;;
25609;SDS011;13479;49.044;8.716;2023-04-30T09:04:57;10.20;;;3.22;;
25609;SDS011;13479;49.044;8.716;2023-04-30T09:07:23;4.88;;;3.10;;
25609;SDS011;13479;49.044;8.716;2023-04-30T09:09:51;6.85;;;3.00;;
25609;SDS011;13479;49.044;8.716;2023-04-30T09:12:17;2.17;;;1.75;;
25609;SDS011;13479;49.044;8.716;2023-04-30T09:17:28;3.45;;;2.63;;
25609;SDS011;13479;49.044;8.716;2023-04-30T09:19:54;5.35;;;2.90;;
25609;SDS011;13479;49.044;8.716;2023-04-30T09:22:31;7.82;;;2.90;;
25609;SDS011;13479;49.044;8.716;2023-04-30T09:24:56;4.63;;;2.67;;
25609;SDS011;13479;49.044;8.716;2023-04-30T09:27:21;4.07;;;1.90;;
25609;SDS011;13479;49.044;8.716;2023-04-30T09:29:47;5.75;;;2.40;;
25609;SDS011;13479;49.044;8.716;2023-04-30T09:32:13;5.82;;;3.13;;
25609;SDS011;13479;49.044;8.716;2023-04-30T09:34:38;3.25;;;2.50;;
25609;SDS011;13479;49.044;8.716;2023-04-30T09:37:04;4.45;;;1.83;;
25609;SDS011;13479;49.044;8.716;2023-04-30T09:39:30;1.30;;;1.10;;
25609;SDS011;13479;49.044;8.716;2023-04-30T09:42:06;3.42;;;2.03;;
25609;SDS011;13479;49.044;8.716;2023-04-30T09:44:35;1.98;;;1.10;;
25609;SDS011;13479;49.044;8.716;2023-04-30T09:47:01;4.25;;;2.40;;
25609;SDS011;13479;49.044;8.716;2023-04-30T09:49:27;3.92;;;1.67;;
25609;SDS011;13479;49.044;8.716;2023-04-30T09:51:53;2.97;;;2.05;;
25609;SDS011;13479;49.044;8.716;2023-04-30T09:54:28;5.82;;;2.03;;
25609;SDS011;13479;49.044;8.716;2023-04-30T09:56:55;16.80;;;1.30;;
25609;SDS011;13479;49.044;8.716;2023-04-30T09:59:22;4.07;;;2.45;;
25609;SDS011;13479;49.044;8.716;2023-04-30T10:01:54;4.10;;;2.55;;
25609;SDS011;13479;49.044;8.716;2023-04-30T10:04:22;5.28;;;2.47;;
25609;SDS011;13479;49.044;8.716;2023-04-30T10:06:49;4.72;;;2.60;;
25609;SDS011;13479;49.044;8.716;2023-04-30T10:09:18;3.88;;;2.60;;
25609;SDS011;13479;49.044;8.716;2023-04-30T10:11:43;4.03;;;2.55;;
25609;SDS011;13479;49.044;8.716;2023-04-30T10:14:10;4.13;;;2.10;;
25609;SDS011;13479;49.044;8.716;2023-04-30T10:16:39;4.05;;;2.05;;
25609;SDS011;13479;49.044;8.716;2023-04-30T10:19:29;7.45;;;2.33;;
25609;SDS011;13479;49.044;8.716;2023-04-30T10:21:57;5.43;;;2.30;;
25609;SDS011;13479;49.044;8.716;2023-04-30T10:24:24;3.88;;;2.03;;
25609;SDS011;13479;49.044;8.716;2023-04-30T10:26:49;4.53;;;2.17;;
25609;SDS011;13479;49.044;8.716;2023-04-30T10:29:15;3.30;;;1.92;;
25609;SDS011;13479;49.044;8.716;2023-04-30T10:31:42;2.85;;;2.30;;
25609;SDS011;13479;49.044;8.716;2023-04-30T10:36:39;3.15;;;1.30;;
25609;SDS011;13479;49.044;8.716;2023-04-30T10:39:08;3.95;;;1.98;;
25609;SDS011;13479;49.044;8.716;2023-04-30T10:41:36;3.85;;;2.00;;
25609;SDS011;13479;49.044;8.716;2023-04-30T10:44:02;3.45;;;1.88;;
25609;SDS011;13479;49.044;8.716;2023-04-30T10:46:29;3.33;;;1.45;;
25609;SDS011;13479;49.044;8.716;2023-04-30T10:48:55;2.78;;;1.70;;
25609;SDS011;13479;49.044;8.716;2023-04-30T10:51:20;4.07;;;1.75;;
25609;SDS011;13479;49.044;8.716;2023-04-30T10:53:49;4.35;;;1.70;;
25609;SDS011;13479;49.044;8.716;2023-04-30T10:56:28;4.30;;;2.20;;
25609;SDS011;13479;49.044;8.716;2023-04-30T10:58:57;2.25;;;1.58;;
25609;SDS011;13479;49.044;8.716;2023-04-30T11:01:25;12.07;;;1.88;;
25609;SDS011;13479;49.044;8.716;2023-04-30T11:04:06;3.65;;;1.92;;
25609;SDS011;13479;49.044;8.716;2023-04-30T11:09:17;2.22;;;1.60;;
25609;SDS011;13479;49.044;8.716;2023-04-30T11:11:45;7.35;;;1.77;;
25609;SDS011;13479;49.044;8.716;2023-04-30T11:14:12;2.40;;;1.38;;
25609;SDS011;13479;49.044;8.716;2023-04-30T11:16:47;5.68;;;1.50;;
25609;SDS011;13479;49.044;8.716;2023-04-30T11:19:13;3.00;;;1.60;;
25609;SDS011;13479;49.044;8.716;2023-04-30T11:21:40;3.95;;;1.55;;
25609;SDS011;13479;49.044;8.716;2023-04-30T11:27:26;4.38;;;1.95;;
25609;SDS011;13479;49.044;8.716;2023-04-30T11:29:53;3.28;;;1.75;;
25609;SDS011;13479;49.044;8.716;2023-04-30T11:32:19;3.53;;;1.80;;
25609;SDS011;13479;49.044;8.716;2023-04-30T11:34:46;4.40;;;1.27;;
25609;SDS011;13479;49.044;8.716;2023-04-30T11:37:12;8.93;;;2.03;;
25609;SDS011;13479;49.044;8.716;2023-04-30T11:39:40;2.92;;;1.77;;
25609;SDS011;13479;49.044;8.716;2023-04-30T11:42:06;2.03;;;1.33;;
25609;SDS011;13479;49.044;8.716;2023-04-30T11:44:32;5.50;;;2.08;;
25609;SDS011;13479;49.044;8.716;2023-04-30T11:46:58;4.25;;;2.30;;
25609;SDS011;13479;49.044;8.716;2023-04-30T11:49:25;4.55;;;1.90;;
25609;SDS011;13479;49.044;8.716;2023-04-30T11:51:51;3.10;;;2.10;;
25609;SDS011;13479;49.044;8.716;2023-04-30T11:54:17;3.50;;;2.00;;
25609;SDS011;13479;49.044;8.716;2023-04-30T11:56:46;6.38;;;1.90;;
25609;SDS011;13479;49.044;8.716;2023-04-30T11:59:15;4.85;;;2.28;;
25609;SDS011;13479;49.044;8.716;2023-04-30T12:01:41;3.95;;;2.13;;
25609;SDS011;13479;49.044;8.716;2023-04-30T12:04:07;4.43;;;2.20;;
25609;SDS011;13479;49.044;8.716;2023-04-30T12:06:33;3.40;;;2.10;;
25609;SDS011;13479;49.044;8.716;2023-04-30T12:09:02;2.53;;;1.70;;
25609;SDS011;13479;49.044;8.716;2023-04-30T12:11:31;3.35;;;1.85;;
25609;SDS011;13479;49.044;8.716;2023-04-30T12:14:02;3.75;;;2.15;;
25609;SDS011;13479;49.044;8.716;2023-04-30T12:16:39;5.30;;;2.30;;
25609;SDS011;13479;49.044;8.716;2023-04-30T12:19:23;2.92;;;2.10;;
25609;SDS011;13479;49.044;8.716;2023-04-30T12:21:49;3.83;;;2.47;;
25609;SDS011;13479;49.044;8.716;2023-04-30T12:24:21;3.45;;;1.90;;
25609;SDS011;13479;49.044;8.716;2023-04-30T12:26:52;3.00;;;2.00;;
25609;SDS011;13479;49.044;8.716;2023-04-30T12:29:17;1.50;;;1.30;;
25609;SDS011;13479;49.044;8.716;2023-04-30T12:31:43;3.30;;;1.50;;
25609;SDS011;13479;49.044;8.716;2023-04-30T12:34:10;3.38;;;2.00;;
25609;SDS011;13479;49.044;8.716;2023-04-30T12:36:38;2.83;;;1.83;;
25609;SDS011;13479;49.044;8.716;2023-04-30T12:39:13;3.22;;;1.80;;
25609;SDS011;13479;49.044;8.716;2023-04-30T12:41:40;5.57;;;1.90;;
25609;SDS011;13479;49.044;8.716;2023-04-30T12:44:20;7.40;;;2.17;;
25609;SDS011;13479;49.044;8.716;2023-04-30T12:46:49;2.55;;;1.67;;
25609;SDS011;13479;49.044;8.716;2023-04-30T12:49:27;4.45;;;2.40;;
25609;SDS011;13479;49.044;8.716;2023-04-30T12:52:03;3.28;;;2.08;;
25609;SDS011;13479;49.044;8.716;2023-04-30T12:54:37;6.38;;;2.20;;
25609;SDS011;13479;49.044;8.716;2023-04-30T12:57:04;2.58;;;1.77;;
25609;SDS011;13479;49.044;8.716;2023-04-30T12:59:32;2.60;;;1.85;;
25609;SDS011;13479;49.044;8.716;2023-04-30T13:02:10;3.78;;;2.10;;
25609;SDS011;13479;49.044;8.716;2023-04-30T13:04:42;3.78;;;2.30;;
25609;SDS011;13479;49.044;8.716;2023-04-30T13:07:07;2.78;;;1.83;;
25609;SDS011;13479;49.044;8.716;2023-04-30T13:09:34;2.60;;;1.80;;
25609;SDS011;13479;49.044;8.716;2023-04-30T13:12:00;2.30;;;1.50;;
25609;SDS011;13479;49.044;8.716;2023-04-30T13:14:26;2.60;;;1.63;;
25609;SDS011;13479;49.044;8.716;2023-04-30T13:16:52;4.03;;;1.98;;
25609;SDS011;13479;49.044;8.716;2023-04-30T13:19:20;2.70;;;2.00;;
25609;SDS011;13479;49.044;8.716;2023-04-30T13:21:49;3.83;;;2.03;;
25609;SDS011;13479;49.044;8.716;2023-04-30T13:24:14;5.78;;;2.60;;
25609;SDS011;13479;49.044;8.716;2023-04-30T13:26:41;2.35;;;1.83;;
25609;SDS011;13479;49.044;8.716;2023-04-30T13:29:07;3.13;;;1.98;;
25609;SDS011;13479;49.044;8.716;2023-04-30T13:31:33;4.05;;;2.10;;
25609;SDS011;13479;49.044;8.716;2023-04-30T13:33:58;4.45;;;2.22;;
25609;SDS011;13479;49.044;8.716;2023-04-30T13:36:24;2.85;;;2.00;;
25609;SDS011;13479;49.044;8.716;2023-04-30T13:38:49;2.55;;;1.77;;
25609;SDS011;13479;49.044;8.716;2023-04-30T13:41:15;5.97;;;2.13;;
25609;SDS011;13479;49.044;8.716;2023-04-30T13:43:40;2.58;;;1.83;;
25609;SDS011;13479;49.044;8.716;2023-04-30T13:46:09;3.55;;;1.52;;
25609;SDS011;13479;49.044;8.716;2023-04-30T13:48:35;3.85;;;2.15;;
25609;SDS011;13479;49.044;8.716;2023-04-30T13:51:00;2.78;;;1.83;;
25609;SDS011;13479;49.044;8.716;2023-04-30T13:53:26;2.63;;;2.00;;
25609;SDS011;13479;49.044;8.716;2023-04-30T13:55:51;6.50;;;1.90;;
25609;SDS011;13479;49.044;8.716;2023-04-30T13:58:17;4.82;;;2.08;;
25609;SDS011;13479;49.044;8.716;2023-04-30T14:00:43;8.13;;;2.25;;
25609;SDS011;13479;49.044;8.716;2023-04-30T14:03:08;11.15;;;2.20;;
25609;SDS011;13479;49.044;8.716;2023-04-30T14:05:34;3.22;;;2.00;;
25609;SDS011;13479;49.044;8.716;2023-04-30T14:08:00;3.08;;;1.83;;
25609;SDS011;13479;49.044;8.716;2023-04-30T14:10:25;2.90;;;1.60;;
25609;SDS011;13479;49.044;8.716;2023-04-30T14:12:50;4.60;;;2.15;;
25609;SDS011;13479;49.044;8.716;2023-04-30T14:15:15;3.03;;;1.60;;
25609;SDS011;13479;49.044;8.716;2023-04-30T14:17:41;2.90;;;1.80;;
25609;SDS011;13479;49.044;8.716;2023-04-30T14:20:07;4.85;;;2.00;;
25609;SDS011;13479;49.044;8.716;2023-04-30T14:22:33;3.65;;;2.10;;
25609;SDS011;13479;49.044;8.716;2023-04-30T14:25:02;4.88;;;2.10;;
25609;SDS011;13479;49.044;8.716;2023-04-30T14:27:27;3.70;;;1.90;;
25609;SDS011;13479;49.044;8.716;2023-04-30T14:29:53;9.32;;;1.70;;
25609;SDS011;13479;49.044;8.716;2023-04-30T14:32:18;3.10;;;1.90;;
25609;SDS011;13479;49.044;8.716;2023-04-30T14:34:43;4.15;;;1.90;;
25609;SDS011;13479;49.044;8.716;2023-04-30T14:37:08;3.10;;;1.70;;
25609;SDS011;13479;49.044;8.716;2023-04-30T14:39:34;3.08;;;1.60;;
25609;SDS011;13479;49.044;8.716;2023-04-30T14:41:59;3.67;;;1.55;;
25609;SDS011;13479;49.044;8.716;2023-04-30T14:44:25;3.03;;;2.15;;
25609;SDS011;13479;49.044;8.716;2023-04-30T14:46:51;4.05;;;2.13;;
25609;SDS011;13479;49.044;8.716;2023-04-30T14:49:16;2.53;;;2.00;;
25609;SDS011;13479;49.044;8.716;2023-04-30T14:51:42;3.15;;;1.60;;
25609;SDS011;13479;49.044;8.716;2023-04-30T14:54:07;2.85;;;1.70;;
25609;SDS011;13479;49.044;8.716;2023-04-30T14:56:33;4.13;;;2.40;;
25609;SDS011;13479;49.044;8.716;2023-04-30T14:58:58;3.55;;;2.20;;
25609;SDS011;13479;49.044;8.716;2023-04-30T15:01:23;2.78;;;1.80;;
25609;SDS011;13479;49.044;8.716;2023-04-30T15:03:49;4.00;;;2.15;;
25609;SDS011;13479;49.044;8.716;2023-04-30T15:06:15;4.25;;;2.03;;
25609;SDS011;13479;49.044;8.716;2023-04-30T15:08:40;1.80;;;1.42;;
25609;SDS011;13479;49.044;8.716;2023-04-30T15:11:06;3.88;;;1.90;;
25609;SDS011;13479;49.044;8.716;2023-04-30T15:13:33;4.40;;;2.13;;
25609;SDS011;13479;49.044;8.716;2023-04-30T15:15:59;4.70;;;2.30;;
25609;SDS011;13479;49.044;8.716;2023-04-30T15:18:24;2.50;;;1.80;;
25609;SDS011;13479;49.044;8.716;2023-04-30T15:20:50;6.18;;;1.92;;
25609;SDS011;13479;49.044;8.716;2023-04-30T15:23:15;3.20;;;1.80;;
25609;SDS011;13479;49.044;8.716;2023-04-30T15:25:40;2.97;;;1.80;;
25609;SDS011;13479;49.044;8.716;2023-04-30T15:28:08;2.58;;;1.90;;
25609;SDS011;13479;49.044;8.716;2023-04-30T15:30:33;8.40;;;2.33;;
25609;SDS011;13479;49.044;8.716;2023-04-30T15:32:58;13.20;;;6.13;;
25609;SDS011;13479;49.044;8.716;2023-04-30T15:35:24;3.60;;;2.22;;
25609;SDS011;13479;49.044;8.716;2023-04-30T15:37:51;3.10;;;2.00;;
25609;SDS011;13479;49.044;8.716;2023-04-30T15:40:16;2.03;;;1.40;;
25609;SDS011;13479;49.044;8.716;2023-04-30T15:42:42;3.75;;;1.90;;
25609;SDS011;13479;49.044;8.716;2023-04-30T15:45:07;3.03;;;2.15;;
25609;SDS011;13479;49.044;8.716;2023-04-30T15:47:33;5.50;;;1.65;;
25609;SDS011;13479;49.044;8.716;2023-04-30T15:49:59;1.88;;;1.45;;
25609;SDS011;13479;49.044;8.716;2023-04-30T15:52:24;2.55;;;1.85;;
25609;SDS011;13479;49.044;8.716;2023-04-30T15:54:50;4.78;;;2.10;;
25609;SDS011;13479;49.044;8.716;2023-04-30T15:57:15;2.30;;;1.80;;
25609;SDS011;13479;49.044;8.716;2023-04-30T15:59:40;4.22;;;2.10;;
25609;SDS011;13479;49.044;8.716;2023-04-30T16:02:06;4.75;;;1.90;;
25609;SDS011;13479;49.044;8.716;2023-04-30T16:04:31;2.25;;;1.75;;
25609;SDS011;13479;49.044;8.716;2023-04-30T16:06:56;2.83;;;1.85;;
25609;SDS011;13479;49.044;8.716;2023-04-30T16:09:21;2.55;;;1.65;;
25609;SDS011;13479;49.044;8.716;2023-04-30T16:11:47;2.63;;;1.50;;
25609;SDS011;13479;49.044;8.716;2023-04-30T16:14:13;2.70;;;1.90;;
25609;SDS011;13479;49.044;8.716;2023-04-30T16:16:38;5.80;;;1.92;;
25609;SDS011;13479;49.044;8.716;2023-04-30T16:19:04;2.95;;;1.77;;
25609;SDS011;13479;49.044;8.716;2023-04-30T16:21:31;2.72;;;2.00;;
25609;SDS011;13479;49.044;8.716;2023-04-30T16:23:57;4.53;;;1.67;;
25609;SDS011;13479;49.044;8.716;2023-04-30T16:26:23;3.20;;;1.77;;
25609;SDS011;13479;49.044;8.716;2023-04-30T16:28:48;2.67;;;1.77;;
25609;SDS011;13479;49.044;8.716;2023-04-30T16:31:13;3.72;;;1.85;;
25609;SDS011;13479;49.044;8.716;2023-04-30T16:33:39;3.92;;;1.60;;
25609;SDS011;13479;49.044;8.716;2023-04-30T16:36:05;2.63;;;1.60;;
25609;SDS011;13479;49.044;8.716;2023-04-30T16:38:31;3.92;;;1.83;;
25609;SDS011;13479;49.044;8.716;2023-04-30T16:40:56;4.00;;;2.20;;
25609;SDS011;13479;49.044;8.716;2023-04-30T16:43:22;0.90;;;0.77;;
25609;SDS011;13479;49.044;8.716;2023-04-30T16:45:47;3.15;;;1.67;;
25609;SDS011;13479;49.044;8.716;2023-04-30T16:48:12;2.53;;;1.73;;
25609;SDS011;13479;49.044;8.716;2023-04-30T16:50:37;2.78;;;1.85;;
25609;SDS011;13479;49.044;8.716;2023-04-30T16:53:03;3.15;;;1.70;;
25609;SDS011;13479;49.044;8.716;2023-04-30T16:55:28;3.78;;;1.95;;
25609;SDS011;13479;49.044;8.716;2023-04-30T16:57:53;3.38;;;1.83;;
25609;SDS011;13479;49.044;8.716;2023-04-30T17:00:19;2.95;;;2.05;;
25609;SDS011;13479;49.044;8.716;2023-04-30T17:02:44;1.75;;;1.50;;
25609;SDS011;13479;49.044;8.716;2023-04-30T17:05:12;3.28;;;1.77;;
25609;SDS011;13479;49.044;8.716;2023-04-30T17:07:40;3.40;;;1.83;;
25609;SDS011;13479;49.044;8.716;2023-04-30T17:10:06;2.47;;;1.95;;
25609;SDS011;13479;49.044;8.716;2023-04-30T17:12:32;4.25;;;2.03;;
25609;SDS011;13479;49.044;8.716;2023-04-30T17:14:57;2.90;;;1.90;;
25609;SDS011;13479;49.044;8.716;2023-04-30T17:17:22;4.90;;;2.03;;
25609;SDS011;13479;49.044;8.716;2023-04-30T17:19:47;3.08;;;1.73;;
25609;SDS011;13479;49.044;8.716;2023-04-30T17:22:13;4.05;;;1.83;;
25609;SDS011;13479;49.044;8.716;2023-04-30T17:24:39;3.92;;;1.75;;
25609;SDS011;13479;49.044;8.716;2023-04-30T17:27:04;1.95;;;1.70;;
25609;SDS011;13479;49.044;8.716;2023-04-30T17:29:29;3.25;;;2.13;;
25609;SDS011;13479;49.044;8.716;2023-04-30T17:31:55;4.35;;;1.88;;
25609;SDS011;13479;49.044;8.716;2023-04-30T17:34:21;5.25;;;2.05;;
25609;SDS011;13479;49.044;8.716;2023-04-30T17:36:46;2.92;;;1.90;;
25609;SDS011;13479;49.044;8.716;2023-04-30T17:39:12;4.20;;;2.00;;
25609;SDS011;13479;49.044;8.716;2023-04-30T17:41:38;3.65;;;1.92;;
25609;SDS011;13479;49.044;8.716;2023-04-30T17:44:03;3.38;;;2.00;;
25609;SDS011;13479;49.044;8.716;2023-04-30T17:46:28;2.88;;;1.90;;
25609;SDS011;13479;49.044;8.716;2023-04-30T17:48:54;3.50;;;1.92;;
25609;SDS011;13479;49.044;8.716;2023-04-30T17:51:19;3.03;;;2.13;;
25609;SDS011;13479;49.044;8.716;2023-04-30T17:53:44;3.47;;;2.30;;
25609;SDS011;13479;49.044;8.716;2023-04-30T17:56:10;3.63;;;2.40;;
25609;SDS011;13479;49.044;8.716;2023-04-30T17:58:36;4.93;;;3.10;;
25609;SDS011;13479;49.044;8.716;2023-04-30T18:01:01;7.60;;;4.07;;
25609;SDS011;13479;49.044;8.716;2023-04-30T18:03:27;11.48;;;6.60;;
25609;SDS011;13479;49.044;8.716;2023-04-30T18:05:53;10.07;;;5.07;;
25609;SDS011;13479;49.044;8.716;2023-04-30T18:08:18;4.93;;;3.20;;
25609;SDS011;13479;49.044;8.716;2023-04-30T18:10:45;4.72;;;2.60;;
25609;SDS011;13479;49.044;8.716;2023-04-30T18:13:11;4.28;;;2.60;;
25609;SDS011;13479;49.044;8.716;2023-04-30T18:15:36;4.28;;;2.58;;
25609;SDS011;13479;49.044;8.716;2023-04-30T18:18:02;3.85;;;2.70;;
25609;SDS011;13479;49.044;8.716;2023-04-30T18:20:27;5.57;;;2.55;;
25609;SDS011;13479;49.044;8.716;2023-04-30T18:22:52;4.45;;;2.60;;
25609;SDS011;13479;49.044;8.716;2023-04-30T18:25:18;4.25;;;2.38;;
25609;SDS011;13479;49.044;8.716;2023-04-30T18:27:43;4.22;;;2.20;;
25609;SDS011;13479;49.044;8.716;2023-04-30T18:30:09;4.80;;;2.30;;
25609;SDS011;13479;49.044;8.716;2023-04-30T18:32:36;4.13;;;2.80;;
25609;SDS011;13479;49.044;8.716;2023-04-30T18:35:02;5.43;;;3.40;;
25609;SDS011;13479;49.044;8.716;2023-04-30T18:37:28;4.82;;;2.75;;
25609;SDS011;13479;49.044;8.716;2023-04-30T18:39:54;5.13;;;2.90;;
25609;SDS011;13479;49.044;8.716;2023-04-30T18:42:19;4.13;;;2.47;;
25609;SDS011;13479;49.044;8.716;2023-04-30T18:44:46;4.20;;;2.80;;
25609;SDS011;13479;49.044;8.716;2023-04-30T18:47:11;4.30;;;2.95;;
25609;SDS011;13479;49.044;8.716;2023-04-30T18:49:36;5.05;;;2.72;;
25609;SDS011;13479;49.044;8.716;2023-04-30T18:52:02;4.95;;;3.20;;